createdAt,value
2018-01-06T00:02:18.595Z,71.79
2018-01-06T00:04:49.530Z,71.75
2018-01-06T00:07:20.515Z,71.78
2018-01-06T00:09:51.434Z,71.78
2018-01-06T00:12:22.428Z,71.91
2018-01-06T00:14:53.375Z,72.19
2018-01-06T00:17:24.338Z,72.26
2018-01-06T00:19:55.270Z,72.23
2018-01-06T00:22:26.261Z,72.34
2018-01-06T00:24:57.228Z,72.55
2018-01-06T00:27:28.155Z,72.60
2018-01-06T00:29:59.136Z,72.63
2018-01-06T00:32:30.115Z,72.50
2018-01-06T00:35:01.081Z,72.53
2018-01-06T00:37:32.054Z,72.38
2018-01-06T00:40:03.036Z,72.33
2018-01-06T00:42:33.925Z,72.35
2018-01-06T00:45:04.849Z,72.16
2018-01-06T00:47:35.790Z,71.94
2018-01-06T00:50:06.787Z,71.77
2018-01-06T00:52:37.718Z,71.57
2018-01-06T00:55:08.704Z,71.42
2018-01-06T00:57:39.723Z,71.34
2018-01-06T01:00:10.738Z,71.30
2018-01-06T01:02:41.647Z,71.34
2018-01-06T01:05:12.564Z,71.46
2018-01-06T01:07:43.492Z,71.54
2018-01-06T01:10:14.460Z,71.34
2018-01-06T01:12:45.452Z,71.23
2018-01-06T01:15:16.446Z,71.00
2018-01-06T01:17:47.410Z,70.96
2018-01-06T01:20:18.359Z,70.71
2018-01-06T01:22:49.335Z,70.70
2018-01-06T01:25:20.310Z,70.76
2018-01-06T01:27:51.256Z,70.66
2018-01-06T01:30:22.211Z,70.60
2018-01-06T01:32:53.181Z,70.65
2018-01-06T01:35:24.118Z,70.72
2018-01-06T01:37:55.073Z,70.97
2018-01-06T01:40:26.011Z,71.27
2018-01-06T01:42:56.950Z,71.54
2018-01-06T01:45:27.859Z,71.47
2018-01-06T01:47:58.796Z,71.47
2018-01-06T01:50:29.805Z,71.31
2018-01-06T01:53:00.704Z,71.36
2018-01-06T01:55:31.696Z,71.50
2018-01-06T01:58:02.640Z,71.70
2018-01-06T02:00:33.617Z,72.08
2018-01-06T02:03:04.608Z,72.09
2018-01-06T02:05:35.632Z,72.05
2018-01-06T02:08:06.589Z,71.95
2018-01-06T02:10:37.582Z,71.87
2018-01-06T02:13:08.548Z,71.85
2018-01-06T02:15:40.171Z,71.76
2018-01-06T02:18:11.241Z,71.69
2018-01-06T02:20:42.207Z,71.57
2018-01-06T02:23:13.192Z,71.53
2018-01-06T02:25:44.128Z,71.33
2018-01-06T02:28:15.112Z,71.22
2018-01-06T02:30:46.064Z,71.27
2018-01-06T02:33:17.016Z,71.45
2018-01-06T02:35:47.990Z,71.76
2018-01-06T02:38:18.944Z,72.06
2018-01-06T02:40:49.915Z,72.08
2018-01-06T02:43:20.860Z,72.23
2018-01-06T02:45:51.796Z,72.07
2018-01-06T02:48:22.739Z,72.05
2018-01-06T02:50:53.713Z,72.12
2018-01-06T02:53:24.648Z,72.17
2018-01-06T02:55:55.602Z,72.16
2018-01-06T02:58:26.545Z,71.99
2018-01-06T03:00:57.506Z,71.69
2018-01-06T03:03:35.629Z,71.72
2018-01-06T03:06:06.601Z,71.82
2018-01-06T03:08:37.580Z,71.96
2018-01-06T03:11:08.499Z,72.18
2018-01-06T03:13:39.474Z,72.24
2018-01-06T03:16:10.434Z,72.12
2018-01-06T03:18:41.428Z,71.93
2018-01-06T03:21:12.379Z,71.77
2018-01-06T03:23:43.341Z,71.42
2018-01-06T03:26:14.291Z,71.28
2018-01-06T03:28:45.222Z,71.27
2018-01-06T03:31:16.206Z,71.20
2018-01-06T03:33:47.135Z,71.15
2018-01-06T03:36:18.091Z,71.12
2018-01-06T03:38:49.068Z,71.39
2018-01-06T03:41:20.038Z,71.56
2018-01-06T03:43:51.040Z,71.71
2018-01-06T03:46:21.959Z,71.99
2018-01-06T03:48:52.897Z,72.27
2018-01-06T03:51:23.830Z,72.39
2018-01-06T03:53:54.936Z,72.58
2018-01-06T03:56:25.926Z,72.68
2018-01-06T03:58:56.946Z,72.67
2018-01-06T04:01:27.987Z,72.64
2018-01-06T04:03:58.944Z,72.65
2018-01-06T04:06:29.868Z,72.50
2018-01-06T04:09:00.815Z,72.21
2018-01-06T04:11:31.811Z,72.09
2018-01-06T04:14:02.729Z,71.85
2018-01-06T04:16:33.708Z,71.72
2018-01-06T04:19:04.664Z,71.65
2018-01-06T04:21:35.652Z,71.66
2018-01-06T04:24:06.607Z,71.50
2018-01-06T04:26:37.614Z,71.43
2018-01-06T04:29:08.568Z,71.68
2018-01-06T04:31:39.517Z,72.00
2018-01-06T04:34:10.508Z,71.77
2018-01-06T04:36:41.436Z,71.60
2018-01-06T04:39:12.412Z,71.27
2018-01-06T04:41:43.325Z,71.12
2018-01-06T04:44:14.284Z,71.07
2018-01-06T04:46:45.223Z,70.92
2018-01-06T04:49:16.212Z,70.91
2018-01-06T04:51:54.204Z,70.89
2018-01-06T04:54:25.193Z,70.86
2018-01-06T04:56:56.184Z,70.80
2018-01-06T04:59:27.161Z,70.92
2018-01-06T05:01:58.146Z,70.90
2018-01-06T05:04:29.082Z,71.11
2018-01-06T05:07:00.021Z,71.14
2018-01-06T05:09:30.946Z,71.21
2018-01-06T05:12:01.894Z,71.28
2018-01-06T05:14:32.820Z,71.28
2018-01-06T05:17:03.749Z,71.23
2018-01-06T05:19:34.700Z,71.16
2018-01-06T05:22:05.633Z,71.19
2018-01-06T05:24:36.582Z,71.25
2018-01-06T05:27:07.512Z,71.30
2018-01-06T05:29:38.483Z,71.66
2018-01-06T05:32:09.416Z,72.15
2018-01-06T05:34:40.420Z,72.64
2018-01-06T05:37:11.414Z,73.03
2018-01-06T05:39:42.375Z,72.88
2018-01-06T05:42:13.325Z,72.42
2018-01-06T05:44:44.369Z,72.21
2018-01-06T05:47:15.365Z,72.09
2018-01-06T05:49:46.328Z,71.87
2018-01-06T05:52:17.291Z,71.58
2018-01-06T05:54:48.274Z,71.30
2018-01-06T05:57:19.223Z,71.24
2018-01-06T05:59:50.120Z,71.17
2018-01-06T06:02:21.089Z,71.07
2018-01-06T06:04:52.042Z,70.96
2018-01-06T06:07:22.945Z,71.04
2018-01-06T06:09:53.896Z,71.13
2018-01-06T06:12:24.874Z,71.06
2018-01-06T06:14:55.944Z,71.02
2018-01-06T06:17:26.882Z,71.08
2018-01-06T06:19:57.840Z,71.33
2018-01-06T06:22:28.811Z,71.47
2018-01-06T06:24:59.791Z,71.22
2018-01-06T06:27:30.737Z,71.06
2018-01-06T06:30:01.749Z,71.12
2018-01-06T06:32:32.717Z,71.30
2018-01-06T06:35:03.635Z,71.36
2018-01-06T06:37:34.610Z,71.27
2018-01-06T06:40:05.615Z,71.21
2018-01-06T06:42:36.595Z,71.04
2018-01-06T06:45:07.549Z,70.85
2018-01-06T06:47:38.524Z,70.66
2018-01-06T06:50:09.444Z,70.68
2018-01-06T06:52:40.427Z,70.91
2018-01-06T06:55:11.377Z,70.94
2018-01-06T06:57:42.422Z,71.40
2018-01-06T07:00:13.414Z,71.89
2018-01-06T07:02:44.361Z,72.38
2018-01-06T07:05:15.273Z,72.41
2018-01-06T07:07:46.218Z,72.01
2018-01-06T07:10:17.191Z,71.85
2018-01-06T07:12:48.334Z,71.49
2018-01-06T07:15:19.494Z,71.44
2018-01-06T07:17:50.473Z,71.19
2018-01-06T07:20:21.460Z,70.86
2018-01-06T07:22:52.369Z,70.50
2018-01-06T07:25:23.305Z,70.25
2018-01-06T07:27:54.218Z,70.26
2018-01-06T07:30:25.208Z,70.79
2018-01-06T07:32:56.159Z,71.25
2018-01-06T07:35:27.104Z,71.18
2018-01-06T07:37:58.082Z,71.25
2018-01-06T07:40:29.064Z,71.20
2018-01-06T07:43:00.017Z,71.50
2018-01-06T07:45:30.989Z,71.91
2018-01-06T07:48:01.988Z,72.71
2018-01-06T07:50:32.950Z,72.66
2018-01-06T07:53:03.879Z,71.94
2018-01-06T07:55:34.826Z,71.47
2018-01-06T07:58:05.787Z,70.77
2018-01-06T08:00:36.765Z,70.36
2018-01-06T08:03:07.693Z,70.11
2018-01-06T08:05:38.616Z,70.03
2018-01-06T08:08:09.568Z,69.93
2018-01-06T08:10:40.513Z,69.96
2018-01-06T08:13:11.448Z,70.13
2018-01-06T08:15:42.398Z,70.22
2018-01-06T08:18:14.206Z,69.82
2018-01-06T08:20:45.231Z,69.28
2018-01-06T08:23:16.214Z,68.82
2018-01-06T08:25:47.192Z,68.80
2018-01-06T08:28:18.177Z,68.34
2018-01-06T08:30:49.213Z,67.68
2018-01-06T08:33:20.100Z,67.64
2018-01-06T08:35:51.109Z,67.49
2018-01-06T08:38:29.100Z,67.07
2018-01-06T08:41:00.085Z,66.67
2018-01-06T08:43:31.029Z,66.85
2018-01-06T08:46:02.892Z,66.39
2018-01-06T08:48:33.880Z,66.36
2018-01-06T08:51:04.823Z,66.10
2018-01-06T08:53:35.811Z,65.05
2018-01-06T08:56:06.763Z,64.57
2018-01-06T08:58:37.704Z,64.17
2018-01-06T09:01:08.731Z,63.52
2018-01-06T09:03:39.696Z,63.53
2018-01-06T09:06:10.686Z,62.32
2018-01-06T09:08:41.707Z,62.17
2018-01-06T09:11:12.658Z,61.71
2018-01-06T09:13:43.658Z,61.80
2018-01-06T09:16:14.634Z,58.93
2018-01-06T09:18:45.608Z,52.90
2018-01-06T09:21:16.571Z,47.88
2018-01-06T09:23:47.583Z,44.69
2018-01-06T09:26:18.530Z,42.56
2018-01-06T09:28:49.509Z,40.60
2018-01-06T09:31:20.458Z,38.87
2018-01-06T09:33:51.492Z,38.77
2018-01-06T09:36:22.439Z,37.77
2018-01-06T09:38:53.463Z,36.21
2018-01-06T09:41:24.377Z,35.52
2018-01-06T09:43:56.106Z,34.66
2018-01-06T09:46:27.088Z,33.86
2018-01-06T09:48:58.120Z,32.51
2018-01-06T09:51:29.098Z,31.32
2018-01-06T09:54:00.116Z,30.44
2018-01-06T09:56:31.150Z,29.59
2018-01-06T09:59:02.106Z,28.76
2018-01-06T10:01:33.062Z,28.40
2018-01-06T10:04:04.041Z,28.04
2018-01-06T10:06:35.031Z,27.64
2018-01-06T10:09:05.981Z,26.95
2018-01-06T10:11:36.978Z,27.64
2018-01-06T10:14:07.879Z,27.71
2018-01-06T10:16:38.857Z,27.31
2018-01-06T10:19:09.781Z,27.18
2018-01-06T10:21:40.723Z,27.17
2018-01-06T10:24:11.666Z,27.20
2018-01-06T10:26:42.606Z,27.13
2018-01-06T10:29:13.624Z,26.92
2018-01-06T10:31:44.600Z,26.71
2018-01-06T10:34:15.556Z,26.23
2018-01-06T10:36:46.508Z,27.99
2018-01-06T10:39:17.505Z,28.90
2018-01-06T10:41:48.476Z,29.30
2018-01-06T10:44:19.457Z,28.98
2018-01-06T10:46:50.412Z,28.61
2018-01-06T10:49:21.341Z,29.28
2018-01-06T10:51:52.320Z,30.89
2018-01-06T10:54:23.305Z,31.06
2018-01-06T10:56:54.315Z,31.28
2018-01-06T10:59:25.292Z,31.63
2018-01-06T11:02:02.388Z,31.63
2018-01-06T11:04:33.370Z,31.73
2018-01-06T11:07:04.470Z,31.68
2018-01-06T11:09:35.537Z,31.88
2018-01-06T11:12:06.487Z,32.33
2018-01-06T11:14:37.437Z,32.98
2018-01-06T11:17:08.398Z,33.61
2018-01-06T11:19:39.479Z,34.23
2018-01-06T11:22:10.760Z,35.14
2018-01-06T11:24:41.700Z,35.13
2018-01-06T11:27:12.674Z,35.12
2018-01-06T11:29:43.616Z,35.46
2018-01-06T11:32:14.580Z,35.35
2018-01-06T11:34:45.542Z,35.21
2018-01-06T11:37:16.494Z,36.13
2018-01-06T11:39:47.503Z,38.25
2018-01-06T11:42:18.416Z,40.36
2018-01-06T11:44:49.330Z,42.20
2018-01-06T11:47:20.303Z,43.40
2018-01-06T11:49:51.228Z,44.59
2018-01-06T11:52:22.222Z,45.48
2018-01-06T11:54:53.201Z,46.52
2018-01-06T11:57:24.200Z,47.62
2018-01-06T11:59:55.206Z,47.75
2018-01-06T12:02:26.158Z,48.27
2018-01-06T12:04:57.118Z,49.27
2018-01-06T12:07:28.122Z,49.68
2018-01-06T12:09:59.071Z,49.89
2018-01-06T12:12:30.017Z,50.42
2018-01-06T12:15:00.986Z,50.58
2018-01-06T12:17:31.942Z,50.94
2018-01-06T12:20:02.906Z,50.95
2018-01-06T12:22:33.906Z,50.72
2018-01-06T12:25:04.878Z,51.19
2018-01-06T12:27:35.826Z,51.05
2018-01-06T12:30:06.834Z,51.29
2018-01-06T12:32:37.834Z,50.62
2018-01-06T12:35:08.779Z,50.18
2018-01-06T12:37:39.750Z,50.51
2018-01-06T12:40:10.739Z,50.48
2018-01-06T12:42:41.752Z,50.52
2018-01-06T12:45:12.772Z,49.83
2018-01-06T12:47:43.735Z,49.68
2018-01-06T12:50:14.730Z,50.07
2018-01-06T12:52:45.744Z,50.25
2018-01-06T12:55:16.778Z,50.26
2018-01-06T12:57:47.712Z,51.12
2018-01-06T13:00:18.757Z,52.48
2018-01-06T13:02:49.699Z,54.06
2018-01-06T13:05:20.710Z,54.72
2018-01-06T13:07:51.671Z,55.45
2018-01-06T13:10:22.614Z,56.40
2018-01-06T13:12:53.593Z,56.70
2018-01-06T13:15:24.546Z,55.96
2018-01-06T13:17:55.464Z,55.67
2018-01-06T13:20:26.486Z,55.48
2018-01-06T13:22:57.524Z,56.23
2018-01-06T13:25:28.563Z,57.07
2018-01-06T13:27:59.525Z,57.27
2018-01-06T13:30:30.483Z,57.78
2018-01-06T13:33:01.448Z,57.49
2018-01-06T13:35:32.447Z,57.33
2018-01-06T13:38:04.254Z,57.21
2018-01-06T13:40:35.237Z,57.13
2018-01-06T13:43:06.224Z,56.75
2018-01-06T13:45:37.194Z,57.20
2018-01-06T13:48:08.160Z,57.53
2018-01-06T13:50:39.173Z,57.79
2018-01-06T13:53:10.124Z,58.62
2018-01-06T13:55:41.126Z,59.05
2018-01-06T13:58:12.072Z,58.96
2018-01-06T14:00:43.028Z,59.67
2018-01-06T14:03:13.967Z,59.66
2018-01-06T14:05:44.971Z,59.65
2018-01-06T14:08:15.917Z,60.00
2018-01-06T14:10:46.885Z,60.58
2018-01-06T14:13:17.830Z,61.13
2018-01-06T14:15:48.899Z,61.17
2018-01-06T14:18:19.925Z,61.28
2018-01-06T14:20:50.916Z,61.27
2018-01-06T14:23:21.905Z,61.71
2018-01-06T14:25:55.458Z,61.95
2018-01-06T14:28:26.498Z,62.06
2018-01-06T14:30:57.438Z,62.55
2018-01-06T14:33:28.403Z,62.71
2018-01-06T14:35:59.338Z,62.90
2018-01-06T14:38:30.303Z,62.81
2018-01-06T14:41:01.242Z,62.85
2018-01-06T14:43:32.250Z,63.54
2018-01-06T14:46:03.213Z,63.30
2018-01-06T14:48:34.223Z,63.09
2018-01-06T14:51:05.208Z,63.58
2018-01-06T14:53:36.176Z,63.45
2018-01-06T14:56:07.146Z,63.23
2018-01-06T14:58:38.135Z,63.17
2018-01-06T15:01:09.139Z,62.98
2018-01-06T15:03:40.168Z,63.39
2018-01-06T15:06:11.159Z,63.95
2018-01-06T15:08:42.073Z,64.44
2018-01-06T15:11:13.024Z,65.21
2018-01-06T15:13:43.985Z,65.04
2018-01-06T15:16:15.025Z,65.70
2018-01-06T15:18:45.982Z,66.78
2018-01-06T15:21:16.944Z,67.50
2018-01-06T15:23:48.018Z,67.91
2018-01-06T15:26:18.946Z,68.41
2018-01-06T15:28:49.923Z,69.14
2018-01-06T15:31:20.842Z,69.86
2018-01-06T15:33:51.837Z,69.65
2018-01-06T15:36:22.805Z,69.76
2018-01-06T15:38:53.818Z,70.00
2018-01-06T15:41:24.793Z,69.88
2018-01-06T15:43:55.795Z,69.78
2018-01-06T15:46:26.803Z,70.29
2018-01-06T15:48:57.794Z,70.51
2018-01-06T15:51:28.807Z,70.31
2018-01-06T15:53:59.730Z,71.37
2018-01-06T15:56:31.450Z,72.01
2018-01-06T15:59:02.421Z,71.65
2018-01-06T16:01:33.413Z,71.45
2018-01-06T16:04:04.352Z,71.47
2018-01-06T16:06:35.354Z,71.10
2018-01-06T16:09:06.293Z,71.07
2018-01-06T16:11:37.262Z,71.35
2018-01-06T16:14:08.214Z,71.79
2018-01-06T16:16:41.406Z,72.17
2018-01-06T16:19:12.391Z,72.48
2018-01-06T16:21:43.356Z,72.71
2018-01-06T16:24:14.328Z,72.85
2018-01-06T16:26:45.313Z,73.14
2018-01-06T16:29:16.308Z,73.26
2018-01-06T16:31:47.257Z,73.44
2018-01-06T16:34:18.242Z,73.64
2018-01-06T16:36:49.216Z,74.27
2018-01-06T16:39:20.212Z,74.74
2018-01-06T16:41:51.169Z,75.12
2018-01-06T16:44:22.207Z,75.72
2018-01-06T16:46:53.189Z,75.77
2018-01-06T16:49:24.150Z,76.23
2018-01-06T16:51:55.048Z,75.84
2018-01-06T16:54:26.054Z,75.88
2018-01-06T16:56:57.071Z,75.49
2018-01-06T16:59:28.044Z,75.59
2018-01-06T17:01:59.005Z,75.44
2018-01-06T17:04:29.996Z,75.36
2018-01-06T17:07:00.989Z,74.90
2018-01-06T17:09:31.966Z,74.81
2018-01-06T17:12:02.944Z,74.92
2018-01-06T17:14:33.914Z,75.27
2018-01-06T17:17:04.853Z,75.25
2018-01-06T17:19:35.807Z,75.23
2018-01-06T17:22:06.757Z,75.27
2018-01-06T17:24:37.741Z,75.42
2018-01-06T17:27:08.778Z,75.47
2018-01-06T17:29:39.789Z,75.44
2018-01-06T17:32:10.836Z,76.13
2018-01-06T17:34:41.762Z,75.46
2018-01-06T17:37:12.774Z,76.01
2018-01-06T17:39:43.917Z,76.67
2018-01-06T17:42:14.903Z,76.52
2018-01-06T17:44:45.828Z,76.16
2018-01-06T17:47:16.831Z,75.96
2018-01-06T17:49:47.786Z,76.40
2018-01-06T17:52:18.754Z,76.23
2018-01-06T17:54:49.735Z,76.22
2018-01-06T17:57:20.757Z,76.55
2018-01-06T17:59:51.726Z,75.94
2018-01-06T18:02:22.781Z,75.94
2018-01-06T18:04:53.736Z,75.35
2018-01-06T18:07:24.726Z,75.25
2018-01-06T18:09:55.650Z,74.71
2018-01-06T18:12:26.666Z,74.65
2018-01-06T18:14:57.635Z,74.30
2018-01-06T18:17:28.617Z,73.91
2018-01-06T18:19:59.737Z,73.76
2018-01-06T18:22:30.694Z,73.43
2018-01-06T18:25:01.822Z,73.42
2018-01-06T18:27:32.878Z,73.26
2018-01-06T18:30:03.852Z,73.12
2018-01-06T18:32:34.746Z,73.13
2018-01-06T18:35:05.775Z,73.50
2018-01-06T18:37:36.755Z,73.56
2018-01-06T18:40:07.714Z,73.33
2018-01-06T18:42:38.636Z,73.43
2018-01-06T18:45:09.630Z,73.81
2018-01-06T18:47:40.565Z,74.33
2018-01-06T18:50:11.524Z,74.85
2018-01-06T18:52:42.502Z,75.13
2018-01-06T18:55:13.469Z,75.41
2018-01-06T18:57:44.467Z,75.45
2018-01-06T19:00:15.426Z,75.24
2018-01-06T19:02:46.406Z,75.20
2018-01-06T19:05:24.482Z,75.91
2018-01-06T19:07:55.459Z,76.42
2018-01-06T19:10:26.414Z,75.94
2018-01-06T19:12:57.412Z,75.67
2018-01-06T19:15:28.426Z,76.14
2018-01-06T19:18:00.314Z,75.70
2018-01-06T19:20:31.331Z,75.47
2018-01-06T19:23:02.300Z,74.92
2018-01-06T19:25:33.303Z,74.24
2018-01-06T19:28:04.282Z,73.77
2018-01-06T19:30:35.297Z,73.67
2018-01-06T19:33:06.219Z,73.90
2018-01-06T19:35:37.201Z,73.93
2018-01-06T19:38:08.157Z,74.09
2018-01-06T19:40:39.175Z,74.04
2018-01-06T19:43:10.135Z,74.08
2018-01-06T19:45:41.095Z,73.82
2018-01-06T19:48:12.160Z,73.80
2018-01-06T19:50:43.152Z,73.60
2018-01-06T19:53:14.144Z,73.52
2018-01-06T19:55:45.102Z,73.11
2018-01-06T19:58:16.118Z,72.70
2018-01-06T20:00:47.124Z,72.81
2018-01-06T20:03:18.134Z,73.27
2018-01-06T20:05:49.125Z,73.04
2018-01-06T20:08:20.121Z,72.99
2018-01-06T20:10:51.111Z,72.45
2018-01-06T20:13:22.079Z,73.12
2018-01-06T20:15:53.020Z,73.26
2018-01-06T20:18:24.002Z,73.49
2018-01-06T20:20:54.965Z,73.19
2018-01-06T20:23:25.943Z,73.37
2018-01-06T20:25:56.910Z,73.62
2018-01-06T20:28:27.929Z,73.93
2018-01-06T20:30:58.988Z,74.31
2018-01-06T20:33:30.020Z,74.67
2018-01-06T20:36:01.053Z,74.63
2018-01-06T20:38:31.979Z,74.68
2018-01-06T20:41:02.982Z,74.86
2018-01-06T20:43:33.960Z,75.23
2018-01-06T20:46:04.969Z,74.98
2018-01-06T20:48:35.895Z,74.74
2018-01-06T20:51:06.881Z,74.88
2018-01-06T20:53:37.906Z,75.27
2018-01-06T20:56:08.842Z,75.83
2018-01-06T20:58:39.797Z,75.89
2018-01-06T21:01:10.855Z,76.02
2018-01-06T21:03:41.771Z,75.82
2018-01-06T21:06:12.876Z,76.17
2018-01-06T21:08:43.832Z,76.07
2018-01-06T21:11:14.793Z,75.67
2018-01-06T21:13:45.794Z,75.70
2018-01-06T21:16:16.735Z,75.59
2018-01-06T21:18:47.779Z,75.46
2018-01-06T21:21:18.732Z,75.17
2018-01-06T21:23:49.688Z,75.23
2018-01-06T21:26:20.659Z,74.68
2018-01-06T21:28:51.659Z,74.73
2018-01-06T21:31:22.694Z,74.49
2018-01-06T21:33:53.713Z,74.01
2018-01-06T21:36:24.650Z,73.71
2018-01-06T21:38:55.618Z,73.34
2018-01-06T21:41:26.626Z,72.91
2018-01-06T21:43:57.637Z,73.56
2018-01-06T21:46:28.687Z,74.20
2018-01-06T21:48:59.597Z,74.50
2018-01-06T21:51:30.614Z,74.95
2018-01-06T21:54:01.610Z,75.25
2018-01-06T21:56:32.560Z,75.20
2018-01-06T21:59:03.698Z,75.04
2018-01-06T22:01:34.655Z,75.24
2018-01-06T22:04:05.619Z,75.70
2018-01-06T22:06:36.581Z,75.58
2018-01-06T22:09:07.706Z,75.59
2018-01-06T22:11:38.722Z,75.34
2018-01-06T22:14:09.734Z,74.96
2018-01-06T22:16:40.754Z,74.58
2018-01-06T22:19:11.713Z,74.27
2018-01-06T22:21:46.298Z,73.90
2018-01-06T22:24:18.173Z,73.54
2018-01-06T22:26:49.119Z,73.46
2018-01-06T22:29:20.071Z,73.39
2018-01-06T22:31:50.991Z,73.38
2018-01-06T22:34:21.968Z,73.51
2018-01-06T22:36:52.955Z,74.28
2018-01-06T22:39:23.886Z,74.07
2018-01-06T22:41:54.825Z,73.66
2018-01-06T22:44:25.803Z,73.42
2018-01-06T22:46:56.787Z,73.26
2018-01-06T22:49:27.752Z,73.49
2018-01-06T22:51:58.703Z,73.39
2018-01-06T22:54:29.612Z,73.49
2018-01-06T22:57:00.569Z,73.47
2018-01-06T22:59:31.503Z,73.56
2018-01-06T23:02:02.440Z,73.69
2018-01-06T23:04:33.474Z,73.51
2018-01-06T23:07:04.435Z,73.75
2018-01-06T23:09:35.374Z,73.94
2018-01-06T23:12:06.451Z,73.85
2018-01-06T23:14:37.436Z,73.76
2018-01-06T23:17:08.390Z,73.72
2018-01-06T23:19:39.371Z,73.68
2018-01-06T23:22:17.387Z,73.36
2018-01-06T23:24:48.326Z,73.83
2018-01-06T23:27:19.308Z,73.91
2018-01-06T23:29:50.265Z,74.38
2018-01-06T23:32:21.222Z,74.40
2018-01-06T23:34:52.190Z,74.56
2018-01-06T23:37:23.104Z,74.41
2018-01-06T23:39:54.051Z,74.45
2018-01-06T23:42:25.016Z,74.84
2018-01-06T23:44:56.007Z,74.80
2018-01-06T23:47:26.932Z,74.74
2018-01-06T23:49:57.938Z,75.14
2018-01-06T23:52:28.887Z,74.94
2018-01-06T23:54:59.874Z,75.23
2018-01-06T23:57:30.827Z,74.83
